Time;durP1;ratioP1;P1;durP2;ratioP2;P2;SDS_P1;SDS_P2;PMS_P1;PMS_P2;Temp;Humidity;BMP_temperature;BMP_pressure;BME280_temperature;BME280_humidity;BME280_pressure;Samples;Min_cycle;Max_cycle;Signal;HPM_P1;HPM_P2
2021/06/05 00:02:00;;;;;;;44.50;20.38;;;18.30;99.90;;;;;;4968552;28;20034;-70
2021/06/05 00:04:26;;;;;;;44.33;21.95;;;18.40;99.90;;;;;;4967990;28;20027;-73
2021/06/05 00:06:51;;;;;;;44.20;21.55;;;18.40;99.90;;;;;;4968702;28;20042;-71
2021/06/05 00:09:20;;;;;;;41.83;20.58;;;18.40;99.90;;;;;;4966027;28;20026;-70
2021/06/05 00:11:45;;;;;;;42.00;21.42;;;18.40;99.90;;;;;;4968541;28;20046;-70
2021/06/05 00:14:12;;;;;;;47.53;21.60;;;18.40;99.90;;;;;;4967874;28;20410;-70
2021/06/05 00:16:48;;;;;;;46.28;20.38;;;18.40;99.90;;;;;;4968187;28;20045;-70
2021/06/05 00:19:15;;;;;;;44.58;22.23;;;18.40;99.90;;;;;;4966865;28;20510;-72
2021/06/05 00:21:42;;;;;;;46.03;21.65;;;18.40;99.90;;;;;;4967968;28;20027;-72
2021/06/05 00:24:08;;;;;;;41.58;20.50;;;18.50;99.90;;;;;;4967948;28;20113;-72
2021/06/05 00:26:34;;;;;;;44.97;19.98;;;18.50;99.90;;;;;;4967264;28;20055;-71
2021/06/05 00:29:00;;;;;;;44.63;21.40;;;18.40;99.90;;;;;;4967693;28;20073;-71
2021/06/05 00:31:26;;;;;;;40.45;20.17;;;18.30;99.90;;;;;;4965882;28;20491;-72
2021/06/05 00:33:52;;;;;;;43.50;21.27;;;18.40;99.90;;;;;;4966545;28;20027;-71
2021/06/05 00:36:18;;;;;;;47.35;21.40;;;18.30;99.90;;;;;;4966938;28;20403;-72
2021/06/05 00:38:44;;;;;;;43.75;20.38;;;18.30;99.90;;;;;;4967543;28;20399;-72
2021/06/05 00:41:15;;;;;;;42.33;19.70;;;18.30;99.90;;;;;;4964608;28;20035;-71
2021/06/05 00:43:44;;;;;;;39.95;21.05;;;18.30;99.90;;;;;;4966339;28;20058;-71
2021/06/05 00:46:11;;;;;;;45.83;22.25;;;18.20;99.90;;;;;;4965916;28;20031;-72
2021/06/05 00:48:37;;;;;;;47.92;22.45;;;18.10;99.90;;;;;;4966677;28;20038;-72
2021/06/05 00:51:04;;;;;;;44.13;22.10;;;18.20;99.90;;;;;;4967409;28;20050;-72
2021/06/05 00:53:30;;;;;;;41.03;20.83;;;18.10;99.90;;;;;;4962991;28;20172;-73
2021/06/05 00:55:58;;;;;;;47.95;20.80;;;18.10;99.90;;;;;;4967157;28;20039;-70
2021/06/05 00:58:26;;;;;;;45.55;21.67;;;18.10;99.90;;;;;;4963317;28;20050;-70
2021/06/05 01:00:59;;;;;;;43.40;20.00;;;18.10;99.90;;;;;;4967694;28;20189;-70
2021/06/05 01:03:25;;;;;;;45.70;21.52;;;18.00;99.90;;;;;;4963710;28;20035;-71
2021/06/05 01:06:01;;;;;;;40.45;21.00;;;18.00;99.90;;;;;;4955348;28;20034;-72
2021/06/05 01:08:32;;;;;;;41.28;21.95;;;18.00;99.90;;;;;;4963099;28;20035;-72
2021/06/05 01:11:21;;;;;;;47.70;22.95;;;18.00;99.90;;;;;;4968380;28;20053;-72
2021/06/05 01:13:55;;;;;;;42.60;20.98;;;17.90;99.90;;;;;;4969476;28;20081;-70
2021/06/05 01:16:24;;;;;;;45.22;22.23;;;17.90;99.90;;;;;;4963338;28;20049;-72
2021/06/05 01:19:06;;;;;;;46.13;20.65;;;17.90;99.90;;;;;;4970190;28;20031;-72
2021/06/05 01:22:01;;;;;;;47.47;21.13;;;17.90;99.90;;;;;;4969652;28;20038;-72
2021/06/05 01:24:47;;;;;;;45.72;20.05;;;17.90;99.90;;;;;;4960086;28;20035;-72
2021/06/05 01:27:21;;;;;;;48.38;21.63;;;17.90;99.90;;;;;;4971275;28;20034;-70
2021/06/05 01:29:52;;;;;;;41.03;20.15;;;17.80;99.90;;;;;;4970665;28;20093;-72
2021/06/05 01:32:17;;;;;;;;;;;17.80;99.90;;;;;;4969989;28;20023;-72
2021/06/05 01:34:47;;;;;;;45.08;19.00;;;17.80;99.90;;;;;;4970616;28;19914;-72
2021/06/05 01:37:15;;;;;;;50.90;19.92;;;17.80;99.90;;;;;;4970754;28;20074;-72
2021/06/05 01:39:44;;;;;;;45.72;19.73;;;17.90;99.90;;;;;;4970097;28;20035;-72
2021/06/05 01:42:15;;;;;;;40.42;18.77;;;17.80;99.90;;;;;;4965175;28;20116;-72
2021/06/05 01:44:42;;;;;;;40.83;17.88;;;17.80;99.90;;;;;;4969012;28;20035;-72
2021/06/05 01:47:11;;;;;;;39.17;17.60;;;17.80;99.90;;;;;;4970783;28;20031;-72
2021/06/05 01:49:36;;;;;;;38.78;17.10;;;17.80;99.90;;;;;;4984619;28;20085;-72
2021/06/05 01:52:07;;;;;;;41.25;16.55;;;17.80;99.90;;;;;;4965440;28;20496;-72
2021/06/05 01:54:39;;;;;;;37.40;17.00;;;17.80;99.90;;;;;;4970277;28;20445;-72
2021/06/05 01:57:11;;;;;;;36.80;16.55;;;17.70;99.90;;;;;;4969901;28;20038;-72
2021/06/05 01:59:36;;;;;;;34.35;15.23;;;17.80;99.90;;;;;;4968632;28;20129;-72
2021/06/05 02:02:03;;;;;;;34.45;15.40;;;17.80;99.90;;;;;;4970426;28;20118;-72
2021/06/05 02:04:29;;;;;;;39.75;15.48;;;17.80;99.90;;;;;;4970962;28;20432;-72
2021/06/05 02:06:56;;;;;;;35.38;14.73;;;17.80;99.90;;;;;;4970607;28;20053;-72
2021/06/05 02:09:24;;;;;;;36.38;14.45;;;17.80;99.90;;;;;;4971005;28;20553;-71
2021/06/05 02:11:58;;;;;;;34.88;13.27;;;17.70;99.90;;;;;;4971582;28;20023;-72
2021/06/05 02:14:34;;;;;;;36.35;14.68;;;17.70;99.90;;;;;;4963303;28;20389;-72
2021/06/05 02:17:01;;;;;;;33.90;12.25;;;17.70;99.90;;;;;;4971862;28;20031;-72
2021/06/05 02:19:33;;;;;;;31.63;12.63;;;17.80;99.90;;;;;;4970213;28;20678;-72
2021/06/05 02:22:03;;;;;;;31.40;12.27;;;17.70;99.90;;;;;;4970916;28;20030;-72
2021/06/05 02:24:35;;;;;;;27.17;11.05;;;17.60;99.90;;;;;;4985021;28;20039;-72
2021/06/05 02:27:04;;;;;;;26.08;10.77;;;17.60;99.90;;;;;;4969803;28;20042;-72
2021/06/05 02:29:33;;;;;;;31.52;11.98;;;17.60;99.90;;;;;;4969382;28;20038;-72
2021/06/05 02:31:59;;;;;;;28.42;11.73;;;17.50;99.90;;;;;;4969617;28;20049;-72
2021/06/05 02:34:28;;;;;;;27.90;11.50;;;17.50;99.90;;;;;;4970054;28;20031;-71
2021/06/05 02:36:57;;;;;;;24.63;11.10;;;17.50;99.90;;;;;;4970243;28;20522;-72
2021/06/05 02:39:24;;;;;;;24.52;10.77;;;17.50;99.90;;;;;;4968656;28;20027;-71
2021/06/05 02:41:51;;;;;;;28.88;11.00;;;17.50;99.90;;;;;;4965330;28;20408;-72
2021/06/05 02:44:20;;;;;;;28.10;11.43;;;17.40;99.90;;;;;;4961467;28;20154;-71
2021/06/05 02:46:47;;;;;;;25.10;11.27;;;17.50;99.90;;;;;;4965362;28;20068;-71
2021/06/05 02:49:18;;;;;;;27.27;11.13;;;17.40;99.90;;;;;;4968330;28;20038;-72
2021/06/05 02:51:51;;;;;;;28.58;12.27;;;17.40;99.90;;;;;;4965517;28;20110;-72
2021/06/05 02:54:19;;;;;;;29.20;12.60;;;17.50;99.90;;;;;;4969327;28;20126;-71
2021/06/05 02:56:45;;;;;;;25.40;10.48;;;17.50;99.90;;;;;;4965163;28;20585;-72
2021/06/05 02:59:11;;;;;;;23.08;10.05;;;17.60;99.90;;;;;;4968202;28;20102;-72
2021/06/05 03:01:36;;;;;;;23.88;10.27;;;17.60;99.90;;;;;;4967756;28;20039;-72
2021/06/05 03:04:02;;;;;;;23.85;10.98;;;17.50;99.90;;;;;;4968749;28;20031;-72
2021/06/05 03:06:30;;;;;;;24.08;10.93;;;17.50;99.90;;;;;;4968981;28;20038;-72
2021/06/05 03:08:57;;;;;;;30.38;12.30;;;17.50;99.90;;;;;;4966883;28;20039;-71
2021/06/05 03:11:24;;;;;;;26.95;11.38;;;17.50;99.90;;;;;;4968860;28;20023;-72
2021/06/05 03:13:50;;;;;;;28.00;12.48;;;17.50;99.90;;;;;;4968740;28;20034;-73
2021/06/05 03:16:16;;;;;;;27.80;11.65;;;17.60;99.90;;;;;;4968656;28;20034;-72
2021/06/05 03:18:43;;;;;;;24.05;10.93;;;17.60;99.90;;;;;;4968644;28;20046;-72
2021/06/05 03:21:15;;;;;;;25.40;10.82;;;17.50;99.90;;;;;;4968369;28;20062;-72
2021/06/05 03:23:42;;;;;;;27.33;11.13;;;17.50;99.90;;;;;;4969015;28;20075;-72
2021/06/05 03:26:08;;;;;;;32.28;11.85;;;17.50;99.90;;;;;;4968034;28;20039;-71
2021/06/05 03:28:34;;;;;;;24.25;11.60;;;17.50;99.90;;;;;;4968334;28;20035;-72
2021/06/05 03:31:00;;;;;;;27.27;12.25;;;17.50;99.90;;;;;;4968219;28;20069;-71
2021/06/05 03:33:26;;;;;;;28.80;12.05;;;17.50;99.90;;;;;;4967975;28;20039;-72
2021/06/05 03:35:53;;;;;;;24.58;10.95;;;17.50;99.90;;;;;;4968059;28;20042;-72
2021/06/05 03:38:20;;;;;;;30.55;11.48;;;17.50;99.90;;;;;;4968233;28;20372;-71
2021/06/05 03:40:46;;;;;;;27.23;11.20;;;17.40;99.90;;;;;;4968488;28;20489;-72
2021/06/05 03:43:12;;;;;;;25.33;10.77;;;17.50;99.90;;;;;;4968511;28;20077;-72
2021/06/05 03:45:38;;;;;;;26.00;11.18;;;17.50;99.90;;;;;;4966807;28;20507;-71
2021/06/05 03:48:05;;;;;;;26.65;10.75;;;17.50;99.90;;;;;;4967718;28;20062;-72
2021/06/05 03:50:37;;;;;;;21.38;9.90;;;17.40;99.90;;;;;;4968183;28;20037;-71
2021/06/05 03:53:03;;;;;;;20.77;9.65;;;17.40;99.90;;;;;;4963996;28;20483;-71
2021/06/05 03:55:29;;;;;;;22.60;11.00;;;17.30;99.90;;;;;;4968249;28;20050;-71
2021/06/05 03:57:59;;;;;;;23.83;11.18;;;17.30;99.90;;;;;;4967076;28;20039;-74
2021/06/05 04:00:30;;;;;;;23.42;11.05;;;17.30;99.90;;;;;;4967059;28;20088;-71
2021/06/05 04:02:55;;;;;;;21.58;10.60;;;17.40;99.90;;;;;;4968112;28;20504;-71
2021/06/05 04:05:21;;;;;;;22.95;11.23;;;17.40;99.90;;;;;;4966317;28;20090;-71
2021/06/05 04:07:47;;;;;;;25.05;10.75;;;17.40;99.90;;;;;;4967400;28;20039;-71
2021/06/05 04:10:15;;;;;;;23.15;10.75;;;17.40;99.90;;;;;;4967425;28;20038;-71
2021/06/05 04:12:40;;;;;;;24.85;10.85;;;17.40;99.90;;;;;;4963834;28;20486;-71
2021/06/05 04:15:09;;;;;;;21.35;10.07;;;17.40;99.90;;;;;;4967691;28;20035;-71
2021/06/05 04:17:34;;;;;;;26.33;11.23;;;17.40;99.90;;;;;;4967163;28;20039;-70
2021/06/05 04:20:01;;;;;;;26.33;10.43;;;17.40;99.90;;;;;;4967062;28;20510;-70
2021/06/05 04:22:26;;;;;;;24.90;10.68;;;17.50;99.90;;;;;;4966307;28;20046;-71
2021/06/05 04:24:52;;;;;;;24.67;11.38;;;17.40;99.90;;;;;;4967386;28;20023;-71
2021/06/05 04:27:18;;;;;;;26.00;11.77;;;17.40;99.90;;;;;;4965647;28;20375;-71
2021/06/05 04:29:43;;;;;;;25.08;11.23;;;17.40;99.90;;;;;;4967224;28;20033;-71
2021/06/05 04:32:09;;;;;;;24.85;11.15;;;17.40;99.90;;;;;;4963678;28;20027;-70
2021/06/05 04:34:35;;;;;;;20.40;10.82;;;17.30;99.90;;;;;;4966044;28;20062;-71
2021/06/05 04:37:01;;;;;;;20.50;9.90;;;17.30;99.90;;;;;;4966209;28;20069;-70
2021/06/05 04:39:27;;;;;;;29.45;12.00;;;17.40;99.90;;;;;;4967213;28;20039;-71
2021/06/05 04:41:53;;;;;;;19.63;9.55;;;17.40;99.90;;;;;;4963276;28;20431;-71
2021/06/05 04:44:18;;;;;;;19.45;9.68;;;17.40;99.90;;;;;;4966051;28;20251;-71
2021/06/05 04:46:44;;;;;;;25.48;11.27;;;17.40;99.90;;;;;;4967910;28;20415;-71
2021/06/05 04:49:10;;;;;;;27.40;11.30;;;17.40;99.90;;;;;;4967244;28;20023;-71
2021/06/05 04:51:37;;;;;;;23.88;10.15;;;17.40;99.90;;;;;;4965476;28;20039;-71
2021/06/05 04:54:03;;;;;;;25.77;10.68;;;17.40;99.90;;;;;;4967278;28;20054;-71
2021/06/05 04:56:45;;;;;;;22.33;10.52;;;17.50;99.90;;;;;;4966615;28;20535;-71
2021/06/05 04:59:13;;;;;;;20.60;9.68;;;17.50;99.90;;;;;;4962895;28;20392;-72
2021/06/05 05:01:40;;;;;;;26.27;11.82;;;17.50;99.90;;;;;;4964463;28;20060;-71
2021/06/05 05:04:06;;;;;;;22.65;10.07;;;17.50;99.90;;;;;;4968103;28;20027;-71
2021/06/05 05:06:32;;;;;;;21.05;10.25;;;17.50;99.90;;;;;;4967984;28;20648;-71
2021/06/05 05:08:58;;;;;;;21.00;10.43;;;17.50;99.90;;;;;;4969802;28;20104;-70
2021/06/05 05:11:24;;;;;;;23.75;10.25;;;17.50;99.90;;;;;;4966453;28;20097;-70
2021/06/05 05:13:50;;;;;;;22.42;10.02;;;17.60;99.90;;;;;;4967931;28;20031;-70
2021/06/05 05:16:16;;;;;;;19.42;9.43;;;17.60;99.90;;;;;;4968008;28;20077;-70
2021/06/05 05:18:46;;;;;;;20.50;8.65;;;17.60;99.90;;;;;;4966283;28;20026;-70
2021/06/05 05:21:13;;;;;;;18.90;8.82;;;17.70;99.90;;;;;;4967930;28;20042;-70
2021/06/05 05:23:39;;;;;;;18.73;8.50;;;17.60;99.90;;;;;;4967306;28;20027;-70
2021/06/05 05:26:07;;;;;;;19.95;9.13;;;17.70;99.90;;;;;;4967029;28;20035;-70
2021/06/05 05:28:34;;;;;;;20.05;9.40;;;17.70;99.90;;;;;;4966605;28;20031;-70
2021/06/05 05:31:02;;;;;;;16.42;7.95;;;17.70;99.90;;;;;;4966907;28;20105;-70
2021/06/05 05:33:29;;;;;;;18.30;8.13;;;17.70;99.90;;;;;;4966716;28;20027;-70
2021/06/05 05:35:56;;;;;;;17.90;8.20;;;17.80;99.90;;;;;;4966680;28;20039;-70
2021/06/05 05:38:22;;;;;;;19.92;8.57;;;17.70;99.90;;;;;;4965126;28;20113;-71
2021/06/05 05:40:49;;;;;;;17.83;8.32;;;17.80;99.90;;;;;;4964770;28;20099;-70
2021/06/05 05:43:15;;;;;;;16.95;8.18;;;17.80;99.90;;;;;;4966978;28;20023;-70
2021/06/05 05:45:41;;;;;;;17.55;9.27;;;17.90;99.90;;;;;;4966551;28;20380;-71
2021/06/05 05:48:08;;;;;;;16.98;8.07;;;17.90;99.90;;;;;;4966444;28;20094;-70
2021/06/05 05:50:36;;;;;;;18.40;8.88;;;18.00;99.90;;;;;;4967138;28;20038;-70
2021/06/05 05:53:02;;;;;;;17.38;8.18;;;18.00;99.90;;;;;;4966179;28;20086;-70
2021/06/05 05:55:28;;;;;;;16.70;8.35;;;18.00;99.90;;;;;;4967012;28;20031;-71
2021/06/05 05:57:54;;;;;;;14.23;7.40;;;18.00;99.90;;;;;;4967726;28;20320;-70
2021/06/05 06:00:27;;;;;;;14.30;6.72;;;18.00;99.90;;;;;;4970093;28;20127;-71
2021/06/05 06:02:53;;;;;;;16.67;7.60;;;18.00;99.90;;;;;;4969281;28;20045;-69
2021/06/05 06:05:18;;;;;;;13.70;7.32;;;18.00;99.90;;;;;;4969751;28;20419;-71
2021/06/05 06:07:44;;;;;;;15.18;7.75;;;18.00;99.90;;;;;;4969132;28;20454;-71
2021/06/05 06:10:13;;;;;;;16.50;7.30;;;17.90;99.90;;;;;;4969792;28;20117;-70
2021/06/05 06:12:39;;;;;;;13.70;7.05;;;18.00;99.90;;;;;;4970057;28;20078;-71
2021/06/05 06:15:09;;;;;;;11.63;7.30;;;18.00;99.90;;;;;;4970113;28;20463;-71
2021/06/05 06:17:35;;;;;;;15.02;7.25;;;18.00;99.90;;;;;;4961036;28;20057;-72
2021/06/05 06:20:01;;;;;;;12.52;6.60;;;18.10;99.90;;;;;;4969859;28;20023;-70
2021/06/05 06:22:26;;;;;;;13.63;6.30;;;18.20;99.90;;;;;;4970017;28;20127;-71
2021/06/05 06:24:52;;;;;;;11.90;5.85;;;18.20;99.90;;;;;;4969813;28;20035;-70
2021/06/05 06:27:17;;;;;;;10.63;6.35;;;18.30;99.90;;;;;;4969788;28;20398;-71
2021/06/05 06:29:43;;;;;;;13.27;6.13;;;18.40;99.90;;;;;;4969374;28;20039;-70
2021/06/05 06:32:08;;;;;;;10.80;5.70;;;18.40;99.90;;;;;;4963322;28;20034;-69
2021/06/05 06:34:35;;;;;;;9.95;5.70;;;18.40;99.90;;;;;;4969412;28;20399;-69
2021/06/05 06:37:03;;;;;;;10.75;5.22;;;18.30;99.90;;;;;;4965504;28;20125;-69
2021/06/05 06:39:30;;;;;;;10.60;5.30;;;18.30;99.90;;;;;;4968588;28;20514;-70
2021/06/05 06:41:56;;;;;;;10.30;5.47;;;18.30;99.90;;;;;;4965129;28;20045;-69
2021/06/05 06:44:21;;;;;;;8.98;5.53;;;18.20;99.90;;;;;;4969213;28;20407;-69
2021/06/05 06:46:49;;;;;;;9.55;5.22;;;18.20;99.90;;;;;;4964906;28;20559;-71
2021/06/05 06:49:16;;;;;;;8.48;5.38;;;18.20;99.90;;;;;;4971261;28;20031;-69
2021/06/05 06:51:42;;;;;;;8.70;5.07;;;18.10;99.90;;;;;;4969787;28;20039;-70
2021/06/05 06:54:10;;;;;;;8.70;4.68;;;18.10;99.90;;;;;;4977841;28;20037;-70
2021/06/05 06:56:37;;;;;;;8.82;5.55;;;18.10;99.90;;;;;;4971967;28;20043;-71
2021/06/05 06:59:05;;;;;;;9.43;5.40;;;18.10;99.90;;;;;;4988280;28;20042;-71
2021/06/05 07:01:30;;;;;;;11.43;4.80;;;18.00;99.90;;;;;;4976137;28;20054;-70
2021/06/05 07:03:56;;;;;;;9.73;5.50;;;18.00;99.90;;;;;;4973981;28;20030;-70
2021/06/05 07:06:25;;;;;;;12.20;5.57;;;17.90;99.90;;;;;;4977415;28;20039;-70
2021/06/05 07:08:52;;;;;;;7.88;5.35;;;18.00;99.90;;;;;;4974418;28;20065;-70
2021/06/05 07:11:25;;;;;;;8.95;5.93;;;18.00;99.90;;;;;;4982257;28;20533;-71
2021/06/05 07:13:50;;;;;;;7.78;5.30;;;18.00;99.90;;;;;;4968758;28;20121;-70
2021/06/05 07:16:17;;;;;;;8.20;5.63;;;18.10;99.90;;;;;;4969232;28;20042;-70
2021/06/05 07:18:43;;;;;;;9.30;5.68;;;18.10;99.90;;;;;;4973862;28;20078;-69
2021/06/05 07:21:10;;;;;;;10.25;5.72;;;18.10;99.90;;;;;;4973874;28;20030;-69
2021/06/05 07:23:38;;;;;;;9.35;5.93;;;18.20;99.90;;;;;;4970576;28;20693;-70
2021/06/05 07:26:07;;;;;;;11.82;6.25;;;18.20;99.90;;;;;;4982030;28;20035;-70
2021/06/05 07:28:43;;;;;;;10.60;6.05;;;18.20;99.90;;;;;;4966524;28;20799;-71
2021/06/05 07:31:12;;;;;;;10.32;6.45;;;18.20;99.90;;;;;;4967348;28;20073;-69
2021/06/05 07:33:38;;;;;;;8.43;5.47;;;18.20;99.90;;;;;;4978352;28;20027;-71
2021/06/05 07:36:05;;;;;;;8.30;5.40;;;18.20;99.90;;;;;;4974304;28;20080;-71
2021/06/05 07:38:31;;;;;;;9.55;5.93;;;18.30;99.90;;;;;;4969971;28;20150;-70
2021/06/05 07:40:58;;;;;;;8.75;5.80;;;18.30;99.90;;;;;;4966380;28;20282;-71
2021/06/05 07:43:28;;;;;;;10.07;5.53;;;18.30;99.90;;;;;;4967886;28;20117;-70
2021/06/05 07:45:55;;;;;;;8.73;5.55;;;18.30;99.90;;;;;;4966571;28;20050;-70
2021/06/05 07:48:22;;;;;;;10.00;5.55;;;18.20;99.90;;;;;;4966429;28;20397;-70
2021/06/05 07:50:47;;;;;;;8.55;5.82;;;18.20;99.90;;;;;;4968410;28;20043;-71
2021/06/05 07:53:13;;;;;;;10.55;6.10;;;18.30;99.90;;;;;;4967140;28;20042;-71
2021/06/05 07:55:39;;;;;;;7.95;5.10;;;18.30;99.90;;;;;;4968771;28;20027;-71
2021/06/05 07:58:05;;;;;;;9.13;5.75;;;18.40;99.90;;;;;;4982710;28;20483;-70
2021/06/05 08:00:33;;;;;;;13.82;6.30;;;18.40;99.90;;;;;;4974257;28;20023;-70
2021/06/05 08:02:59;;;;;;;9.95;5.72;;;18.40;99.90;;;;;;4971414;28;20027;-69
2021/06/05 08:05:25;;;;;;;12.27;6.43;;;18.50;99.90;;;;;;4972841;28;20554;-69
2021/06/05 08:07:51;;;;;;;9.60;5.50;;;18.70;99.90;;;;;;4973617;28;20041;-70
2021/06/05 08:10:19;;;;;;;10.32;5.35;;;18.80;99.90;;;;;;4969020;28;20034;-69
2021/06/05 08:12:46;;;;;;;10.60;5.47;;;18.90;99.90;;;;;;4974554;28;20080;-69
2021/06/05 08:15:15;;;;;;;10.55;5.30;;;19.00;99.90;;;;;;4971306;28;20475;-69
2021/06/05 08:17:41;;;;;;;9.75;5.85;;;19.10;99.90;;;;;;4972306;28;20050;-71
2021/06/05 08:20:10;;;;;;;10.02;5.22;;;19.20;99.90;;;;;;4987296;28;20027;-73
2021/06/05 08:22:36;;;;;;;9.48;4.65;;;19.20;99.90;;;;;;4966677;28;20070;-72
2021/06/05 08:25:04;;;;;;;9.23;4.93;;;19.10;99.90;;;;;;4975693;28;20099;-72
2021/06/05 08:27:30;;;;;;;8.52;5.30;;;19.00;99.90;;;;;;4971838;28;20027;-70
2021/06/05 08:29:55;;;;;;;6.75;5.22;;;19.00;99.90;;;;;;4974114;28;20380;-71
2021/06/05 08:32:21;;;;;;;9.85;5.30;;;19.00;99.90;;;;;;4973710;28;20038;-70
2021/06/05 08:34:47;;;;;;;8.18;4.95;;;19.00;99.90;;;;;;4975710;28;20030;-71
2021/06/05 08:37:13;;;;;;;7.05;4.82;;;19.00;99.90;;;;;;4969952;28;20085;-71
2021/06/05 08:39:39;;;;;;;6.03;4.40;;;18.90;99.90;;;;;;4972758;28;20043;-71
2021/06/05 08:42:09;;;;;;;8.30;4.93;;;18.80;99.90;;;;;;4967959;28;20079;-70
2021/06/05 08:44:38;;;;;;;7.20;4.95;;;18.80;99.90;;;;;;4972906;28;20059;-71
2021/06/05 08:47:27;;;;;;;9.50;5.45;;;18.90;99.90;;;;;;4963694;28;20031;-71
2021/06/05 08:49:54;;;;;;;7.18;4.95;;;18.80;99.90;;;;;;4963181;28;20059;-71
2021/06/05 08:52:26;;;;;;;9.45;5.53;;;18.90;99.90;;;;;;4966180;28;20043;-70
2021/06/05 08:54:56;;;;;;;10.98;5.70;;;19.00;99.90;;;;;;4964904;28;20134;-71
2021/06/05 08:57:43;;;;;;;10.60;5.70;;;19.00;99.90;;;;;;4965187;28;20046;-71
2021/06/05 09:00:18;;;;;;;8.00;5.63;;;19.00;99.90;;;;;;4964621;28;20071;-72
2021/06/05 09:02:50;;;;;;;8.68;5.50;;;19.10;99.90;;;;;;4966021;28;20039;-72
2021/06/05 09:05:20;;;;;;;9.40;6.05;;;19.00;99.90;;;;;;4966023;28;20439;-71
2021/06/05 09:07:45;;;;;;;11.32;6.72;;;19.00;99.90;;;;;;4967398;28;20034;-72
2021/06/05 09:10:15;;;;;;;10.07;6.15;;;19.10;99.90;;;;;;4967441;28;20085;-68
2021/06/05 09:12:41;;;;;;;9.45;5.97;;;19.10;99.90;;;;;;4967699;28;20031;-71
2021/06/05 09:15:07;;;;;;;10.05;6.00;;;19.10;99.90;;;;;;4967508;28;20514;-69
2021/06/05 09:17:37;;;;;;;11.55;6.90;;;19.20;99.90;;;;;;4967779;28;20050;-71
2021/06/05 09:20:24;;;;;;;14.73;8.75;;;19.10;99.90;;;;;;4967611;28;20066;-71
2021/06/05 09:22:50;;;;;;;14.55;9.32;;;19.10;99.90;;;;;;4965904;28;20039;-71
2021/06/05 09:25:24;;;;;;;15.75;9.82;;;19.00;99.90;;;;;;4965320;28;20061;-71
2021/06/05 09:27:50;;;;;;;18.52;10.43;;;19.00;99.90;;;;;;4969353;28;20057;-71
2021/06/05 09:30:36;;;;;;;14.95;10.38;;;18.90;99.90;;;;;;4970875;28;20039;-71
2021/06/05 09:33:06;;;;;;;15.55;9.27;;;18.90;99.90;;;;;;4966949;28;20258;-71
2021/06/05 09:35:34;;;;;;;;;;;18.90;99.90;;;;;;4986498;28;20042;-71
2021/06/05 09:38:24;;;;;;;16.65;9.95;;;18.90;99.90;;;;;;4970521;28;19922;-72
2021/06/05 09:41:18;;;;;;;19.85;11.88;;;18.90;99.90;;;;;;4969559;28;20078;-70
2021/06/05 09:43:46;;;;;;;21.92;13.38;;;18.90;99.90;;;;;;4970085;28;20042;-70
2021/06/05 09:46:23;;;;;;;19.73;12.65;;;19.00;99.90;;;;;;4973585;28;20046;-71
2021/06/05 09:48:52;;;;;;;22.40;13.52;;;19.10;99.90;;;;;;4971811;28;20545;-69
2021/06/05 09:51:29;;;;;;;21.67;12.93;;;19.40;99.90;;;;;;4971308;28;20070;-71
2021/06/05 09:54:04;;;;;;;21.98;13.65;;;19.60;99.90;;;;;;4967364;28;20027;-70
2021/06/05 09:56:44;;;;;;;19.70;11.98;;;19.80;99.90;;;;;;4970686;28;20349;-70
2021/06/05 09:59:24;;;;;;;21.33;13.15;;;19.90;99.90;;;;;;4974301;28;20035;-70
2021/06/05 10:02:05;;;;;;;24.65;13.95;;;20.10;99.90;;;;;;4971795;28;20545;-70
2021/06/05 10:04:36;;;;;;;19.10;12.13;;;20.20;99.90;;;;;;4972942;28;20031;-72
2021/06/05 10:07:03;;;;;;;20.70;12.10;;;20.40;99.90;;;;;;4970354;28;20090;-71
2021/06/05 10:09:33;;;;;;;16.17;9.98;;;20.60;99.90;;;;;;4972027;28;20034;-72
2021/06/05 10:12:21;;;;;;;15.73;10.75;;;20.80;99.90;;;;;;4970718;28;20541;-71
2021/06/05 10:15:02;;;;;;;17.48;11.35;;;21.00;99.90;;;;;;4981194;28;20133;-72
2021/06/05 10:17:37;;;;;;;16.33;9.95;;;21.20;99.90;;;;;;4971500;28;20299;-71
2021/06/05 10:20:25;;;;;;;17.85;10.20;;;21.20;99.90;;;;;;4975666;28;20034;-71
2021/06/05 10:22:57;;;;;;;13.05;8.73;;;21.30;99.90;;;;;;4981852;28;20070;-71
2021/06/05 10:25:35;;;;;;;15.02;8.75;;;21.10;99.90;;;;;;4975486;28;20073;-72
2021/06/05 10:28:19;;;;;;;18.17;8.65;;;21.00;99.90;;;;;;4973094;28;20042;-69
2021/06/05 10:30:53;;;;;;;19.38;9.20;;;20.70;99.90;;;;;;4963278;28;20057;-71
2021/06/05 10:33:52;;;;;;;20.35;10.10;;;20.50;99.90;;;;;;4985912;28;20031;-70
2021/06/05 10:36:23;;;;;;;18.50;8.60;;;20.20;99.90;;;;;;4971573;28;20031;-70
2021/06/05 10:38:57;;;;;;;18.98;8.48;;;20.10;99.90;;;;;;4972120;28;20106;-71
2021/06/05 10:41:27;;;;;;;19.30;8.48;;;19.90;99.90;;;;;;4972613;28;20031;-71
2021/06/05 10:43:53;;;;;;;19.77;8.57;;;19.90;99.90;;;;;;4989903;28;20118;-71
2021/06/05 10:46:43;;;;;;;20.15;9.18;;;19.70;99.90;;;;;;4970510;28;20054;-69
2021/06/05 10:49:35;;;;;;;23.23;9.98;;;19.60;99.90;;;;;;4972017;28;20034;-69
2021/06/05 10:52:13;;;;;;;20.02;9.90;;;19.50;99.90;;;;;;4982017;28;20515;-68
2021/06/05 10:54:48;;;;;;;19.98;8.48;;;19.30;99.90;;;;;;4988045;28;20053;-70
2021/06/05 10:57:19;;;;;;;15.70;8.60;;;19.10;99.90;;;;;;4986946;28;20503;-71
2021/06/05 10:59:47;;;;;;;18.05;8.30;;;18.90;99.90;;;;;;4972195;28;20049;-70
2021/06/05 11:02:35;;;;;;;17.15;6.93;;;18.90;99.90;;;;;;4974326;28;20487;-71
2021/06/05 11:05:01;;;;;;;13.88;7.43;;;18.80;99.90;;;;;;4988617;28;20031;-69
2021/06/05 11:07:33;;;;;;;11.90;6.57;;;18.90;99.90;;;;;;4975874;28;20031;-73
2021/06/05 11:10:03;;;;;;;16.48;6.93;;;19.10;99.90;;;;;;4974509;28;20468;-71
2021/06/05 11:12:44;;;;;;;12.23;6.25;;;19.10;99.90;;;;;;4975882;28;20027;-71
2021/06/05 11:15:31;;;;;;;11.50;5.80;;;19.10;99.90;;;;;;4973969;28;20050;-70
2021/06/05 11:18:25;;;;;;;14.45;6.70;;;19.20;99.90;;;;;;4967958;28;20043;-72
2021/06/05 11:20:51;;;;;;;18.58;7.47;;;19.10;99.90;;;;;;4984778;28;20054;-71
2021/06/05 11:23:18;;;;;;;15.15;6.88;;;19.00;99.90;;;;;;4970963;28;20042;-70
2021/06/05 11:25:49;;;;;;;13.32;6.95;;;19.00;99.90;;;;;;4986138;28;20071;-72
2021/06/05 11:28:44;;;;;;;13.93;6.93;;;19.00;99.90;;;;;;4964421;28;20050;-71
2021/06/05 11:31:37;;;;;;;14.98;6.80;;;19.20;99.90;;;;;;4986299;28;20055;-72
2021/06/05 11:34:03;;;;;;;16.83;7.63;;;19.20;99.90;;;;;;4972842;28;20034;-74
2021/06/05 11:36:48;;;;;;;16.15;7.85;;;19.10;99.90;;;;;;4982777;28;21121;-71
2021/06/05 11:39:36;;;;;;;18.50;7.82;;;19.10;99.90;;;;;;4992481;28;20038;-71
2021/06/05 11:42:25;;;;;;;18.17;7.63;;;19.00;99.90;;;;;;4967824;28;20043;-70
2021/06/05 11:45:25;;;;;;;17.25;6.85;;;18.90;99.90;;;;;;4971824;28;20459;-72
2021/06/05 11:47:51;;;;;;;;;;;19.00;99.90;;;;;;4974597;28;20031;-71
2021/06/05 11:50:25;;;;;;;13.13;6.47;;;19.10;99.90;;;;;;4975516;28;19913;-70
2021/06/05 11:52:52;;;;;;;15.95;6.85;;;19.20;99.90;;;;;;4972236;28;20027;-71
2021/06/05 11:55:38;;;;;;;12.35;6.75;;;19.20;99.90;;;;;;4981313;28;20121;-73
2021/06/05 11:58:09;;;;;;;14.13;6.30;;;19.20;99.90;;;;;;4976295;28;20038;-70
2021/06/05 12:00:44;;;;;;;13.30;6.88;;;19.20;99.90;;;;;;4975687;28;20042;-71
2021/06/05 12:03:36;;;;;;;15.48;6.82;;;19.30;99.90;;;;;;4973901;28;20038;-73
2021/06/05 12:06:16;;;;;;;16.23;6.53;;;19.20;99.90;;;;;;4970216;28;20115;-70
2021/06/05 12:08:42;;;;;;;15.68;7.25;;;19.30;99.90;;;;;;4973548;28;20023;-70
2021/06/05 12:11:28;;;;;;;16.50;7.13;;;19.30;99.90;;;;;;4972959;28;20549;-71
2021/06/05 12:14:15;;;;;;;20.85;7.57;;;19.30;99.90;;;;;;4991586;28;20030;-72
2021/06/05 12:16:56;;;;;;;15.50;7.28;;;19.20;99.90;;;;;;4980053;28;20094;-70
2021/06/05 12:19:31;;;;;;;18.80;7.40;;;19.00;99.90;;;;;;4973191;28;20039;-70
2021/06/05 12:22:14;;;;;;;22.63;9.15;;;18.90;99.90;;;;;;4972511;28;20043;-72
2021/06/05 12:24:44;;;;;;;19.08;8.57;;;18.90;99.90;;;;;;4972410;28;20489;-70
2021/06/05 12:27:21;;;;;;;21.97;9.30;;;18.90;99.90;;;;;;4975577;28;20070;-71
2021/06/05 12:29:47;;;;;;;23.05;8.90;;;18.80;99.90;;;;;;4963410;28;20035;-72
2021/06/05 12:32:16;;;;;;;23.40;9.52;;;18.90;99.90;;;;;;4977668;28;20077;-71
2021/06/05 12:34:43;;;;;;;23.95;10.32;;;18.90;99.90;;;;;;4967790;28;20043;-71
2021/06/05 12:37:17;;;;;;;22.77;9.82;;;19.10;99.90;;;;;;4968210;28;20043;-71
2021/06/05 12:39:46;;;;;;;24.90;10.38;;;19.10;99.90;;;;;;4969673;28;20264;-71
2021/06/05 12:42:19;;;;;;;21.60;9.43;;;19.20;99.90;;;;;;4972495;28;20027;-71
2021/06/05 12:44:46;;;;;;;29.98;9.48;;;19.20;99.90;;;;;;4964128;28;20399;-70
2021/06/05 12:47:34;;;;;;;22.02;8.60;;;19.10;99.90;;;;;;4965246;28;20057;-70
2021/06/05 12:50:01;;;;;;;17.63;8.00;;;19.20;99.90;;;;;;4963090;28;20038;-71
2021/06/05 12:52:29;;;;;;;18.27;7.50;;;19.20;99.90;;;;;;4962239;28;20563;-71